sensor_id;sensor_type;location;lat;lon;timestamp;P1;durP1;ratioP1;P2;durP2;ratioP2
49566;SDS011;35472;50.514;30.448;2022-10-31T00:01:22;7.07;;;1.52;;
49566;SDS011;35472;50.514;30.448;2022-10-31T00:03:58;3.10;;;1.57;;
49566;SDS011;35472;50.514;30.448;2022-10-31T00:06:24;4.20;;;1.45;;
49566;SDS011;35472;50.514;30.448;2022-10-31T00:08:54;3.75;;;1.90;;
49566;SDS011;35472;50.514;30.448;2022-10-31T00:11:27;6.03;;;1.23;;
49566;SDS011;35472;50.514;30.448;2022-10-31T00:13:53;3.17;;;1.33;;
49566;SDS011;35472;50.514;30.448;2022-10-31T00:16:22;1.52;;;0.90;;
49566;SDS011;35472;50.514;30.448;2022-10-31T00:18:53;4.82;;;1.63;;
49566;SDS011;35472;50.514;30.448;2022-10-31T00:21:20;8.32;;;1.98;;
49566;SDS011;35472;50.514;30.448;2022-10-31T00:23:46;9.75;;;2.35;;
49566;SDS011;35472;50.514;30.448;2022-10-31T00:26:12;2.95;;;1.92;;
49566;SDS011;35472;50.514;30.448;2022-10-31T00:28:37;2.35;;;1.52;;
49566;SDS011;35472;50.514;30.448;2022-10-31T00:31:05;2.22;;;1.60;;
49566;SDS011;35472;50.514;30.448;2022-10-31T00:33:33;3.42;;;1.30;;
49566;SDS011;35472;50.514;30.448;2022-10-31T00:36:00;3.08;;;0.98;;
49566;SDS011;35472;50.514;30.448;2022-10-31T00:38:25;4.68;;;1.33;;
49566;SDS011;35472;50.514;30.448;2022-10-31T00:40:51;3.40;;;0.98;;
49566;SDS011;35472;50.514;30.448;2022-10-31T00:43:16;5.57;;;1.60;;
49566;SDS011;35472;50.514;30.448;2022-10-31T00:45:42;4.30;;;2.10;;
49566;SDS011;35472;50.514;30.448;2022-10-31T00:48:08;3.42;;;1.60;;
49566;SDS011;35472;50.514;30.448;2022-10-31T00:50:34;5.25;;;1.73;;
49566;SDS011;35472;50.514;30.448;2022-10-31T00:52:59;3.60;;;1.40;;
49566;SDS011;35472;50.514;30.448;2022-10-31T00:55:25;3.40;;;1.50;;
49566;SDS011;35472;50.514;30.448;2022-10-31T00:57:51;2.35;;;1.45;;
49566;SDS011;35472;50.514;30.448;2022-10-31T01:00:17;3.10;;;1.20;;
49566;SDS011;35472;50.514;30.448;2022-10-31T01:02:43;1.83;;;1.15;;
49566;SDS011;35472;50.514;30.448;2022-10-31T01:05:11;6.10;;;1.67;;
49566;SDS011;35472;50.514;30.448;2022-10-31T01:07:37;5.45;;;1.50;;
49566;SDS011;35472;50.514;30.448;2022-10-31T01:10:07;3.88;;;1.58;;
49566;SDS011;35472;50.514;30.448;2022-10-31T01:12:37;4.53;;;1.20;;
49566;SDS011;35472;50.514;30.448;2022-10-31T01:15:04;3.90;;;1.38;;
49566;SDS011;35472;50.514;30.448;2022-10-31T01:17:30;2.67;;;1.33;;
49566;SDS011;35472;50.514;30.448;2022-10-31T01:19:56;3.22;;;1.90;;
49566;SDS011;35472;50.514;30.448;2022-10-31T01:22:21;0.95;;;0.90;;
49566;SDS011;35472;50.514;30.448;2022-10-31T01:24:46;4.35;;;1.40;;
49566;SDS011;35472;50.514;30.448;2022-10-31T01:27:12;3.35;;;1.85;;
49566;SDS011;35472;50.514;30.448;2022-10-31T01:29:37;5.43;;;2.05;;
49566;SDS011;35472;50.514;30.448;2022-10-31T01:32:02;8.55;;;1.15;;
49566;SDS011;35472;50.514;30.448;2022-10-31T01:34:28;3.92;;;1.40;;
49566;SDS011;35472;50.514;30.448;2022-10-31T01:36:54;2.47;;;1.95;;
49566;SDS011;35472;50.514;30.448;2022-10-31T01:39:21;1.70;;;1.00;;
49566;SDS011;35472;50.514;30.448;2022-10-31T01:41:47;3.42;;;1.73;;
49566;SDS011;35472;50.514;30.448;2022-10-31T01:46:44;7.70;;;1.30;;
49566;SDS011;35472;50.514;30.448;2022-10-31T01:49:14;1.50;;;1.30;;
49566;SDS011;35472;50.514;30.448;2022-10-31T01:51:50;5.57;;;1.92;;
49566;SDS011;35472;50.514;30.448;2022-10-31T01:54:24;8.02;;;1.92;;
49566;SDS011;35472;50.514;30.448;2022-10-31T01:56:55;3.60;;;1.48;;
49566;SDS011;35472;50.514;30.448;2022-10-31T01:59:21;6.18;;;1.55;;
49566;SDS011;35472;50.514;30.448;2022-10-31T02:01:49;4.53;;;1.65;;
49566;SDS011;35472;50.514;30.448;2022-10-31T02:04:17;2.53;;;1.30;;
49566;SDS011;35472;50.514;30.448;2022-10-31T02:06:52;5.30;;;1.30;;
49566;SDS011;35472;50.514;30.448;2022-10-31T02:09:22;2.45;;;1.42;;
49566;SDS011;35472;50.514;30.448;2022-10-31T02:11:53;2.83;;;1.25;;
49566;SDS011;35472;50.514;30.448;2022-10-31T02:14:22;2.90;;;1.77;;
49566;SDS011;35472;50.514;30.448;2022-10-31T02:16:50;2.95;;;1.40;;
49566;SDS011;35472;50.514;30.448;2022-10-31T02:19:18;2.90;;;1.67;;
49566;SDS011;35472;50.514;30.448;2022-10-31T02:22:26;2.10;;;1.08;;
49566;SDS011;35472;50.514;30.448;2022-10-31T02:28:00;3.97;;;1.50;;
49566;SDS011;35472;50.514;30.448;2022-10-31T02:33:24;3.03;;;1.70;;
49566;SDS011;35472;50.514;30.448;2022-10-31T02:41:18;2.42;;;1.20;;
49566;SDS011;35472;50.514;30.448;2022-10-31T02:46:48;4.65;;;1.52;;
49566;SDS011;35472;50.514;30.448;2022-10-31T02:49:21;3.75;;;1.48;;
49566;SDS011;35472;50.514;30.448;2022-10-31T02:51:52;4.03;;;1.60;;
49566;SDS011;35472;50.514;30.448;2022-10-31T02:54:18;2.83;;;1.02;;
49566;SDS011;35472;50.514;30.448;2022-10-31T02:56:49;4.95;;;0.90;;
49566;SDS011;35472;50.514;30.448;2022-10-31T02:59:17;2.67;;;1.48;;
49566;SDS011;35472;50.514;30.448;2022-10-31T03:04:25;3.22;;;1.67;;
49566;SDS011;35472;50.514;30.448;2022-10-31T03:07:11;0.75;;;0.68;;
49566;SDS011;35472;50.514;30.448;2022-10-31T03:17:25;4.00;;;1.35;;
49566;SDS011;35472;50.514;30.448;2022-10-31T03:19:59;2.63;;;1.27;;
49566;SDS011;35472;50.514;30.448;2022-10-31T03:22:27;6.70;;;2.13;;
49566;SDS011;35472;50.514;30.448;2022-10-31T03:24:57;4.28;;;1.25;;
49566;SDS011;35472;50.514;30.448;2022-10-31T03:27:27;3.53;;;1.80;;
49566;SDS011;35472;50.514;30.448;2022-10-31T03:29:58;3.95;;;1.17;;
49566;SDS011;35472;50.514;30.448;2022-10-31T03:32:34;3.55;;;1.88;;
49566;SDS011;35472;50.514;30.448;2022-10-31T03:35:04;4.80;;;0.85;;
49566;SDS011;35472;50.514;30.448;2022-10-31T03:37:32;2.70;;;1.88;;
49566;SDS011;35472;50.514;30.448;2022-10-31T03:40:00;1.90;;;0.82;;
49566;SDS011;35472;50.514;30.448;2022-10-31T03:42:30;2.40;;;1.38;;
49566;SDS011;35472;50.514;30.448;2022-10-31T03:45:03;0.70;;;0.47;;
49566;SDS011;35472;50.514;30.448;2022-10-31T03:47:36;1.85;;;0.60;;
49566;SDS011;35472;50.514;30.448;2022-10-31T03:50:04;1.13;;;0.52;;
49566;SDS011;35472;50.514;30.448;2022-10-31T03:55:05;0.40;;;0.40;;
49566;SDS011;35472;50.514;30.448;2022-10-31T03:57:37;1.70;;;0.57;;
49566;SDS011;35472;50.514;30.448;2022-10-31T04:00:13;0.73;;;0.30;;
49566;SDS011;35472;50.514;30.448;2022-10-31T04:03:03;2.15;;;0.30;;
49566;SDS011;35472;50.514;30.448;2022-10-31T04:05:36;1.50;;;0.55;;
49566;SDS011;35472;50.514;30.448;2022-10-31T04:08:04;0.95;;;0.80;;
49566;SDS011;35472;50.514;30.448;2022-10-31T04:10:34;0.77;;;0.45;;
49566;SDS011;35472;50.514;30.448;2022-10-31T04:13:07;2.72;;;0.38;;
49566;SDS011;35472;50.514;30.448;2022-10-31T04:15:45;1.13;;;0.55;;
49566;SDS011;35472;50.514;30.448;2022-10-31T04:18:11;1.35;;;0.38;;
49566;SDS011;35472;50.514;30.448;2022-10-31T04:20:38;1.08;;;0.93;;
49566;SDS011;35472;50.514;30.448;2022-10-31T04:23:13;3.05;;;0.50;;
49566;SDS011;35472;50.514;30.448;2022-10-31T04:25:48;8.43;;;1.52;;
49566;SDS011;35472;50.514;30.448;2022-10-31T04:28:13;0.80;;;0.63;;
49566;SDS011;35472;50.514;30.448;2022-10-31T04:30:39;1.48;;;0.50;;
49566;SDS011;35472;50.514;30.448;2022-10-31T04:33:04;2.83;;;0.35;;
49566;SDS011;35472;50.514;30.448;2022-10-31T04:35:30;0.70;;;0.32;;
49566;SDS011;35472;50.514;30.448;2022-10-31T04:37:56;0.50;;;0.28;;
49566;SDS011;35472;50.514;30.448;2022-10-31T04:40:21;1.38;;;0.50;;
49566;SDS011;35472;50.514;30.448;2022-10-31T04:43:05;1.42;;;0.50;;
49566;SDS011;35472;50.514;30.448;2022-10-31T04:45:31;2.45;;;0.90;;
49566;SDS011;35472;50.514;30.448;2022-10-31T04:47:56;3.13;;;0.55;;
49566;SDS011;35472;50.514;30.448;2022-10-31T04:50:22;2.08;;;0.55;;
49566;SDS011;35472;50.514;30.448;2022-10-31T04:52:48;4.55;;;1.30;;
49566;SDS011;35472;50.514;30.448;2022-10-31T04:55:16;1.20;;;0.88;;
49566;SDS011;35472;50.514;30.448;2022-10-31T04:58:00;0.32;;;0.20;;
49566;SDS011;35472;50.514;30.448;2022-10-31T05:00:26;1.52;;;0.63;;
49566;SDS011;35472;50.514;30.448;2022-10-31T05:02:52;4.28;;;0.65;;
49566;SDS011;35472;50.514;30.448;2022-10-31T05:05:20;2.83;;;0.40;;
49566;SDS011;35472;50.514;30.448;2022-10-31T05:07:48;3.40;;;0.90;;
49566;SDS011;35472;50.514;30.448;2022-10-31T05:10:16;0.55;;;0.40;;
49566;SDS011;35472;50.514;30.448;2022-10-31T05:12:47;0.93;;;0.47;;
49566;SDS011;35472;50.514;30.448;2022-10-31T05:15:37;1.30;;;0.73;;
49566;SDS011;35472;50.514;30.448;2022-10-31T05:18:34;1.52;;;0.50;;
49566;SDS011;35472;50.514;30.448;2022-10-31T05:21:18;2.45;;;0.75;;
49566;SDS011;35472;50.514;30.448;2022-10-31T05:23:48;1.02;;;0.50;;
49566;SDS011;35472;50.514;30.448;2022-10-31T05:26:15;3.70;;;0.60;;
49566;SDS011;35472;50.514;30.448;2022-10-31T05:28:40;2.13;;;0.60;;
49566;SDS011;35472;50.514;30.448;2022-10-31T05:31:06;0.77;;;0.45;;
49566;SDS011;35472;50.514;30.448;2022-10-31T05:33:31;1.60;;;0.55;;
49566;SDS011;35472;50.514;30.448;2022-10-31T05:36:06;0.50;;;0.40;;
49566;SDS011;35472;50.514;30.448;2022-10-31T05:38:52;1.48;;;0.43;;
49566;SDS011;35472;50.514;30.448;2022-10-31T05:41:32;1.13;;;0.60;;
49566;SDS011;35472;50.514;30.448;2022-10-31T05:44:04;2.00;;;0.70;;
49566;SDS011;35472;50.514;30.448;2022-10-31T05:46:35;1.85;;;0.75;;
49566;SDS011;35472;50.514;30.448;2022-10-31T05:49:19;2.17;;;0.60;;
49566;SDS011;35472;50.514;30.448;2022-10-31T05:52:07;0.73;;;0.35;;
49566;SDS011;35472;50.514;30.448;2022-10-31T05:54:39;3.03;;;1.30;;
49566;SDS011;35472;50.514;30.448;2022-10-31T05:57:04;2.67;;;0.95;;
49566;SDS011;35472;50.514;30.448;2022-10-31T05:59:30;0.82;;;0.30;;
49566;SDS011;35472;50.514;30.448;2022-10-31T06:01:56;0.80;;;0.60;;
49566;SDS011;35472;50.514;30.448;2022-10-31T15:55:24;8.75;;;5.63;;
49566;SDS011;35472;50.514;30.448;2022-10-31T15:57:57;14.68;;;8.68;;
49566;SDS011;35472;50.514;30.448;2022-10-31T16:00:25;10.82;;;6.22;;
49566;SDS011;35472;50.514;30.448;2022-10-31T16:05:38;11.55;;;6.35;;
49566;SDS011;35472;50.514;30.448;2022-10-31T16:08:24;11.98;;;6.95;;
49566;SDS011;35472;50.514;30.448;2022-10-31T16:10:53;10.55;;;6.70;;
49566;SDS011;35472;50.514;30.448;2022-10-31T16:13:20;11.25;;;6.10;;
49566;SDS011;35472;50.514;30.448;2022-10-31T16:15:52;10.02;;;3.75;;
49566;SDS011;35472;50.514;30.448;2022-10-31T16:18:20;7.75;;;4.45;;
49566;SDS011;35472;50.514;30.448;2022-10-31T16:20:50;13.57;;;4.47;;
49566;SDS011;35472;50.514;30.448;2022-10-31T16:23:18;14.65;;;6.43;;
49566;SDS011;35472;50.514;30.448;2022-10-31T16:25:45;17.52;;;9.25;;
49566;SDS011;35472;50.514;30.448;2022-10-31T16:28:16;29.13;;;13.77;;
49566;SDS011;35472;50.514;30.448;2022-10-31T16:30:45;30.63;;;14.43;;
49566;SDS011;35472;50.514;30.448;2022-10-31T16:35:49;35.00;;;18.70;;
49566;SDS011;35472;50.514;30.448;2022-10-31T16:38:15;21.65;;;10.85;;
49566;SDS011;35472;50.514;30.448;2022-10-31T16:40:41;23.60;;;12.63;;
49566;SDS011;35472;50.514;30.448;2022-10-31T16:43:13;17.95;;;10.18;;
49566;SDS011;35472;50.514;30.448;2022-10-31T16:45:43;19.80;;;11.45;;
49566;SDS011;35472;50.514;30.448;2022-10-31T16:48:14;18.80;;;10.02;;
49566;SDS011;35472;50.514;30.448;2022-10-31T16:50:44;17.90;;;9.55;;
49566;SDS011;35472;50.514;30.448;2022-10-31T16:53:11;14.60;;;8.68;;
49566;SDS011;35472;50.514;30.448;2022-10-31T16:55:44;13.32;;;7.85;;
49566;SDS011;35472;50.514;30.448;2022-10-31T16:58:14;12.50;;;8.25;;
49566;SDS011;35472;50.514;30.448;2022-10-31T17:00:42;10.13;;;5.80;;
49566;SDS011;35472;50.514;30.448;2022-10-31T17:03:08;8.38;;;4.88;;
49566;SDS011;35472;50.514;30.448;2022-10-31T17:05:34;11.18;;;6.55;;
49566;SDS011;35472;50.514;30.448;2022-10-31T17:08:00;14.27;;;8.57;;
49566;SDS011;35472;50.514;30.448;2022-10-31T17:10:26;16.40;;;9.88;;
49566;SDS011;35472;50.514;30.448;2022-10-31T17:12:52;20.40;;;10.88;;
49566;SDS011;35472;50.514;30.448;2022-10-31T17:15:22;19.48;;;9.60;;
49566;SDS011;35472;50.514;30.448;2022-10-31T17:17:50;15.60;;;8.23;;
49566;SDS011;35472;50.514;30.448;2022-10-31T17:20:23;12.55;;;6.53;;
49566;SDS011;35472;50.514;30.448;2022-10-31T17:22:51;12.88;;;6.78;;
49566;SDS011;35472;50.514;30.448;2022-10-31T17:25:18;11.90;;;6.88;;
49566;SDS011;35472;50.514;30.448;2022-10-31T17:27:46;12.82;;;6.78;;
49566;SDS011;35472;50.514;30.448;2022-10-31T17:30:12;11.00;;;6.45;;
49566;SDS011;35472;50.514;30.448;2022-10-31T17:32:39;11.73;;;5.47;;
49566;SDS011;35472;50.514;30.448;2022-10-31T17:35:05;8.35;;;4.45;;
49566;SDS011;35472;50.514;30.448;2022-10-31T17:37:31;8.68;;;4.90;;
49566;SDS011;35472;50.514;30.448;2022-10-31T17:39:57;9.75;;;5.72;;
49566;SDS011;35472;50.514;30.448;2022-10-31T17:42:22;10.32;;;5.35;;
49566;SDS011;35472;50.514;30.448;2022-10-31T17:44:48;13.63;;;6.63;;
49566;SDS011;35472;50.514;30.448;2022-10-31T17:47:14;9.95;;;5.22;;
49566;SDS011;35472;50.514;30.448;2022-10-31T17:49:39;12.00;;;5.60;;
49566;SDS011;35472;50.514;30.448;2022-10-31T17:52:05;6.50;;;4.57;;
49566;SDS011;35472;50.514;30.448;2022-10-31T17:54:30;9.25;;;5.20;;
49566;SDS011;35472;50.514;30.448;2022-10-31T17:56:55;7.32;;;4.53;;
49566;SDS011;35472;50.514;30.448;2022-10-31T17:59:21;11.57;;;5.60;;
49566;SDS011;35472;50.514;30.448;2022-10-31T18:01:46;6.75;;;4.00;;
49566;SDS011;35472;50.514;30.448;2022-10-31T18:04:12;6.25;;;3.53;;
49566;SDS011;35472;50.514;30.448;2022-10-31T18:06:37;7.75;;;3.70;;
49566;SDS011;35472;50.514;30.448;2022-10-31T18:09:04;5.68;;;3.17;;
49566;SDS011;35472;50.514;30.448;2022-10-31T18:11:30;7.32;;;4.20;;
49566;SDS011;35472;50.514;30.448;2022-10-31T18:13:56;8.23;;;5.55;;
49566;SDS011;35472;50.514;30.448;2022-10-31T18:16:23;7.60;;;4.45;;
49566;SDS011;35472;50.514;30.448;2022-10-31T18:18:50;8.40;;;4.78;;
49566;SDS011;35472;50.514;30.448;2022-10-31T18:21:17;7.13;;;3.67;;
49566;SDS011;35472;50.514;30.448;2022-10-31T18:23:42;7.82;;;4.18;;
49566;SDS011;35472;50.514;30.448;2022-10-31T18:26:08;5.72;;;3.28;;
49566;SDS011;35472;50.514;30.448;2022-10-31T18:28:35;6.65;;;3.53;;
49566;SDS011;35472;50.514;30.448;2022-10-31T18:31:00;5.25;;;3.40;;
49566;SDS011;35472;50.514;30.448;2022-10-31T18:33:26;7.68;;;4.20;;
49566;SDS011;35472;50.514;30.448;2022-10-31T18:35:52;9.63;;;4.55;;
49566;SDS011;35472;50.514;30.448;2022-10-31T18:38:17;11.57;;;5.18;;
49566;SDS011;35472;50.514;30.448;2022-10-31T18:40:43;8.65;;;5.72;;
49566;SDS011;35472;50.514;30.448;2022-10-31T18:43:08;10.43;;;5.78;;
49566;SDS011;35472;50.514;30.448;2022-10-31T18:45:34;10.95;;;5.65;;
49566;SDS011;35472;50.514;30.448;2022-10-31T18:48:01;10.05;;;5.72;;
49566;SDS011;35472;50.514;30.448;2022-10-31T18:50:27;7.57;;;5.50;;
49566;SDS011;35472;50.514;30.448;2022-10-31T18:52:52;9.55;;;6.10;;
49566;SDS011;35472;50.514;30.448;2022-10-31T18:55:17;9.15;;;6.10;;
49566;SDS011;35472;50.514;30.448;2022-10-31T18:57:43;10.98;;;5.97;;
49566;SDS011;35472;50.514;30.448;2022-10-31T19:00:09;7.75;;;5.50;;
49566;SDS011;35472;50.514;30.448;2022-10-31T19:02:34;11.10;;;6.20;;
49566;SDS011;35472;50.514;30.448;2022-10-31T19:05:00;8.45;;;5.65;;
49566;SDS011;35472;50.514;30.448;2022-10-31T19:07:25;9.38;;;5.78;;
49566;SDS011;35472;50.514;30.448;2022-10-31T19:09:51;13.38;;;5.03;;
49566;SDS011;35472;50.514;30.448;2022-10-31T19:12:16;13.77;;;5.72;;
49566;SDS011;35472;50.514;30.448;2022-10-31T19:14:41;7.90;;;4.32;;
49566;SDS011;35472;50.514;30.448;2022-10-31T19:17:07;9.43;;;4.43;;
49566;SDS011;35472;50.514;30.448;2022-10-31T19:19:32;9.07;;;5.05;;
49566;SDS011;35472;50.514;30.448;2022-10-31T19:21:58;7.28;;;4.35;;
49566;SDS011;35472;50.514;30.448;2022-10-31T19:24:23;8.45;;;4.40;;
49566;SDS011;35472;50.514;30.448;2022-10-31T19:26:49;5.78;;;3.30;;
49566;SDS011;35472;50.514;30.448;2022-10-31T19:29:14;14.80;;;4.72;;
49566;SDS011;35472;50.514;30.448;2022-10-31T19:31:40;7.68;;;3.85;;
49566;SDS011;35472;50.514;30.448;2022-10-31T19:34:06;4.68;;;3.65;;
49566;SDS011;35472;50.514;30.448;2022-10-31T19:36:32;7.32;;;3.97;;
49566;SDS011;35472;50.514;30.448;2022-10-31T19:39:03;6.90;;;4.15;;
49566;SDS011;35472;50.514;30.448;2022-10-31T19:41:33;6.22;;;4.47;;
49566;SDS011;35472;50.514;30.448;2022-10-31T19:43:59;6.57;;;4.40;;
49566;SDS011;35472;50.514;30.448;2022-10-31T19:46:25;8.30;;;5.15;;
49566;SDS011;35472;50.514;30.448;2022-10-31T19:48:50;7.85;;;4.00;;
49566;SDS011;35472;50.514;30.448;2022-10-31T19:51:17;9.63;;;3.65;;
49566;SDS011;35472;50.514;30.448;2022-10-31T19:53:47;5.72;;;3.22;;
49566;SDS011;35472;50.514;30.448;2022-10-31T19:56:17;6.15;;;3.88;;
49566;SDS011;35472;50.514;30.448;2022-10-31T19:58:44;3.40;;;2.40;;
49566;SDS011;35472;50.514;30.448;2022-10-31T20:01:10;4.90;;;2.97;;
49566;SDS011;35472;50.514;30.448;2022-10-31T20:03:37;3.92;;;2.47;;
49566;SDS011;35472;50.514;30.448;2022-10-31T20:06:04;3.72;;;2.90;;
49566;SDS011;35472;50.514;30.448;2022-10-31T20:08:30;4.97;;;2.80;;
49566;SDS011;35472;50.514;30.448;2022-10-31T20:10:58;6.57;;;3.67;;
49566;SDS011;35472;50.514;30.448;2022-10-31T20:13:26;4.13;;;2.55;;
49566;SDS011;35472;50.514;30.448;2022-10-31T20:15:56;5.28;;;3.08;;
49566;SDS011;35472;50.514;30.448;2022-10-31T20:18:23;5.97;;;3.25;;
49566;SDS011;35472;50.514;30.448;2022-10-31T20:20:49;4.93;;;2.92;;
49566;SDS011;35472;50.514;30.448;2022-10-31T20:23:16;9.65;;;3.60;;
49566;SDS011;35472;50.514;30.448;2022-10-31T20:25:48;5.32;;;3.75;;
49566;SDS011;35472;50.514;30.448;2022-10-31T20:28:14;6.90;;;3.70;;
49566;SDS011;35472;50.514;30.448;2022-10-31T20:30:40;8.05;;;3.35;;
49566;SDS011;35472;50.514;30.448;2022-10-31T20:33:06;8.85;;;3.83;;
49566;SDS011;35472;50.514;30.448;2022-10-31T20:35:34;5.40;;;4.10;;
49566;SDS011;35472;50.514;30.448;2022-10-31T20:38:00;4.75;;;3.28;;
49566;SDS011;35472;50.514;30.448;2022-10-31T20:40:25;4.63;;;2.30;;
49566;SDS011;35472;50.514;30.448;2022-10-31T20:42:51;5.85;;;3.20;;
49566;SDS011;35472;50.514;30.448;2022-10-31T20:45:16;7.97;;;3.70;;
49566;SDS011;35472;50.514;30.448;2022-10-31T20:47:42;7.47;;;3.17;;
49566;SDS011;35472;50.514;30.448;2022-10-31T20:50:07;3.97;;;2.92;;
49566;SDS011;35472;50.514;30.448;2022-10-31T20:52:32;6.55;;;3.08;;
49566;SDS011;35472;50.514;30.448;2022-10-31T20:54:58;4.97;;;2.83;;
49566;SDS011;35472;50.514;30.448;2022-10-31T20:57:23;5.28;;;3.40;;
49566;SDS011;35472;50.514;30.448;2022-10-31T20:59:49;5.40;;;2.38;;
49566;SDS011;35472;50.514;30.448;2022-10-31T21:02:14;4.53;;;2.35;;
49566;SDS011;35472;50.514;30.448;2022-10-31T21:04:40;5.57;;;3.05;;
49566;SDS011;35472;50.514;30.448;2022-10-31T21:07:05;3.78;;;2.88;;
49566;SDS011;35472;50.514;30.448;2022-10-31T21:09:30;3.55;;;2.42;;
49566;SDS011;35472;50.514;30.448;2022-10-31T21:11:56;5.82;;;2.78;;
49566;SDS011;35472;50.514;30.448;2022-10-31T21:14:21;3.47;;;2.03;;
49566;SDS011;35472;50.514;30.448;2022-10-31T21:16:47;4.50;;;2.25;;
49566;SDS011;35472;50.514;30.448;2022-10-31T21:19:12;3.22;;;2.15;;
49566;SDS011;35472;50.514;30.448;2022-10-31T21:21:37;3.88;;;1.92;;
49566;SDS011;35472;50.514;30.448;2022-10-31T21:24:04;2.70;;;2.28;;
49566;SDS011;35472;50.514;30.448;2022-10-31T21:26:37;6.20;;;2.70;;
49566;SDS011;35472;50.514;30.448;2022-10-31T21:29:04;3.05;;;2.30;;
49566;SDS011;35472;50.514;30.448;2022-10-31T21:31:31;5.05;;;3.00;;
49566;SDS011;35472;50.514;30.448;2022-10-31T21:33:57;4.50;;;2.58;;
49566;SDS011;35472;50.514;30.448;2022-10-31T21:36:23;5.88;;;2.83;;
49566;SDS011;35472;50.514;30.448;2022-10-31T21:38:50;4.85;;;2.95;;
49566;SDS011;35472;50.514;30.448;2022-10-31T21:41:15;6.18;;;3.00;;
49566;SDS011;35472;50.514;30.448;2022-10-31T21:43:43;4.82;;;2.72;;
49566;SDS011;35472;50.514;30.448;2022-10-31T21:46:11;4.35;;;2.63;;
49566;SDS011;35472;50.514;30.448;2022-10-31T21:48:38;5.82;;;2.75;;
49566;SDS011;35472;50.514;30.448;2022-10-31T21:51:06;5.07;;;3.25;;
49566;SDS011;35472;50.514;30.448;2022-10-31T21:53:33;6.22;;;3.38;;
49566;SDS011;35472;50.514;30.448;2022-10-31T21:56:18;4.40;;;3.00;;
49566;SDS011;35472;50.514;30.448;2022-10-31T21:58:47;5.55;;;3.15;;
49566;SDS011;35472;50.514;30.448;2022-10-31T22:01:12;3.92;;;2.97;;
49566;SDS011;35472;50.514;30.448;2022-10-31T22:03:38;7.00;;;4.07;;
49566;SDS011;35472;50.514;30.448;2022-10-31T22:06:05;7.30;;;3.78;;
49566;SDS011;35472;50.514;30.448;2022-10-31T22:08:32;5.20;;;3.05;;
49566;SDS011;35472;50.514;30.448;2022-10-31T22:11:01;6.10;;;3.17;;
49566;SDS011;35472;50.514;30.448;2022-10-31T22:13:38;6.75;;;3.42;;
49566;SDS011;35472;50.514;30.448;2022-10-31T22:16:05;5.82;;;2.95;;
49566;SDS011;35472;50.514;30.448;2022-10-31T22:18:32;6.03;;;3.08;;
49566;SDS011;35472;50.514;30.448;2022-10-31T22:21:01;6.20;;;3.55;;
49566;SDS011;35472;50.514;30.448;2022-10-31T22:23:28;6.38;;;3.75;;
49566;SDS011;35472;50.514;30.448;2022-10-31T22:25:53;5.68;;;2.47;;
49566;SDS011;35472;50.514;30.448;2022-10-31T22:28:19;7.28;;;3.28;;
49566;SDS011;35472;50.514;30.448;2022-10-31T22:30:44;4.93;;;3.30;;
49566;SDS011;35472;50.514;30.448;2022-10-31T22:33:09;4.28;;;2.50;;
49566;SDS011;35472;50.514;30.448;2022-10-31T22:35:35;9.07;;;3.67;;
49566;SDS011;35472;50.514;30.448;2022-10-31T22:38:02;4.88;;;3.35;;
49566;SDS011;35472;50.514;30.448;2022-10-31T22:40:28;7.82;;;2.83;;
49566;SDS011;35472;50.514;30.448;2022-10-31T22:42:54;3.88;;;2.38;;
49566;SDS011;35472;50.514;30.448;2022-10-31T22:45:19;5.90;;;3.35;;
49566;SDS011;35472;50.514;30.448;2022-10-31T22:47:45;6.43;;;3.15;;
49566;SDS011;35472;50.514;30.448;2022-10-31T22:50:10;6.82;;;4.10;;
49566;SDS011;35472;50.514;30.448;2022-10-31T22:52:35;7.30;;;3.75;;
49566;SDS011;35472;50.514;30.448;2022-10-31T22:55:01;6.07;;;3.38;;
49566;SDS011;35472;50.514;30.448;2022-10-31T22:57:26;8.75;;;2.83;;
49566;SDS011;35472;50.514;30.448;2022-10-31T22:59:51;6.07;;;3.03;;
49566;SDS011;35472;50.514;30.448;2022-10-31T23:02:17;7.50;;;3.65;;
49566;SDS011;35472;50.514;30.448;2022-10-31T23:04:42;7.57;;;2.70;;
49566;SDS011;35472;50.514;30.448;2022-10-31T23:07:07;6.25;;;3.28;;
49566;SDS011;35472;50.514;30.448;2022-10-31T23:09:33;4.13;;;3.17;;
49566;SDS011;35472;50.514;30.448;2022-10-31T23:11:59;6.15;;;3.67;;
49566;SDS011;35472;50.514;30.448;2022-10-31T23:14:45;4.40;;;2.67;;
49566;SDS011;35472;50.514;30.448;2022-10-31T23:17:11;8.00;;;3.42;;
49566;SDS011;35472;50.514;30.448;2022-10-31T23:19:42;9.43;;;3.70;;
49566;SDS011;35472;50.514;30.448;2022-10-31T23:22:11;5.57;;;4.00;;
49566;SDS011;35472;50.514;30.448;2022-10-31T23:24:40;5.75;;;3.42;;
49566;SDS011;35472;50.514;30.448;2022-10-31T23:32:10;5.35;;;2.85;;
49566;SDS011;35472;50.514;30.448;2022-10-31T23:34:41;7.18;;;3.83;;
49566;SDS011;35472;50.514;30.448;2022-10-31T23:37:07;6.22;;;3.03;;
49566;SDS011;35472;50.514;30.448;2022-10-31T23:39:32;4.47;;;3.80;;
49566;SDS011;35472;50.514;30.448;2022-10-31T23:41:58;5.90;;;3.40;;
49566;SDS011;35472;50.514;30.448;2022-10-31T23:44:24;6.97;;;3.42;;
49566;SDS011;35472;50.514;30.448;2022-10-31T23:46:49;5.45;;;3.25;;
49566;SDS011;35472;50.514;30.448;2022-10-31T23:49:14;5.15;;;3.28;;
49566;SDS011;35472;50.514;30.448;2022-10-31T23:51:40;5.60;;;2.70;;
49566;SDS011;35472;50.514;30.448;2022-10-31T23:54:05;4.97;;;3.42;;
49566;SDS011;35472;50.514;30.448;2022-10-31T23:56:31;6.32;;;2.78;;
49566;SDS011;35472;50.514;30.448;2022-10-31T23:58:56;6.60;;;3.33;;
